createdAt,value
2023-10-29T00:02:53.787Z,10.43
2023-10-29T00:05:58.297Z,10.41
2023-10-29T00:09:01.045Z,10.32
2023-10-29T00:12:03.931Z,10.36
2023-10-29T00:15:07.815Z,10.40
2023-10-29T00:18:13.889Z,10.43
2023-10-29T00:21:18.057Z,10.59
2023-10-29T00:24:21.062Z,10.51
2023-10-29T00:27:23.786Z,10.48
2023-10-29T00:30:26.680Z,10.42
2023-10-29T00:33:29.394Z,10.36
2023-10-29T00:36:33.660Z,10.42
2023-10-29T00:39:36.540Z,10.39
2023-10-29T00:42:39.337Z,10.41
2023-10-29T00:45:43.059Z,10.40
2023-10-29T00:48:46.520Z,10.35
2023-10-29T00:51:51.809Z,10.34
2023-10-29T00:54:54.791Z,10.37
2023-10-29T00:57:57.732Z,10.37
2023-10-29T01:01:00.470Z,10.36
2023-10-29T01:04:03.792Z,10.36
2023-10-29T01:07:08.042Z,10.39
2023-10-29T01:10:12.323Z,10.46
2023-10-29T01:13:15.111Z,10.52
2023-10-29T01:16:18.074Z,10.43
2023-10-29T01:19:21.023Z,10.40
2023-10-29T01:22:25.475Z,10.46
2023-10-29T01:25:28.280Z,10.43
2023-10-29T01:28:31.177Z,10.44
2023-10-29T01:31:34.096Z,10.43
2023-10-29T01:34:37.206Z,10.47
2023-10-29T01:37:41.314Z,10.54
2023-10-29T01:40:45.150Z,10.54
2023-10-29T01:43:47.866Z,10.65
2023-10-29T01:46:51.042Z,10.70
2023-10-29T01:49:53.789Z,10.69
2023-10-29T01:52:58.374Z,10.69
2023-10-29T01:56:01.215Z,10.74
2023-10-29T01:59:04.422Z,10.69
2023-10-29T02:02:07.204Z,10.70
2023-10-29T02:05:10.371Z,10.84
2023-10-29T02:08:14.440Z,10.77
2023-10-29T02:11:17.267Z,10.77
2023-10-29T02:14:20.012Z,10.85
2023-10-29T02:17:26.200Z,10.85
2023-10-29T02:20:29.256Z,10.92
2023-10-29T02:23:33.658Z,11.01
2023-10-29T02:26:38.096Z,10.89
2023-10-29T02:29:41.053Z,11.04
2023-10-29T02:32:43.817Z,10.97
2023-10-29T02:35:47.623Z,11.03
2023-10-29T02:38:51.819Z,11.09
2023-10-29T02:41:54.893Z,11.08
2023-10-29T02:44:59.876Z,11.05
2023-10-29T02:48:02.887Z,11.01
2023-10-29T02:51:05.920Z,11.08
2023-10-29T02:54:10.158Z,11.09
2023-10-29T02:57:14.712Z,11.20
2023-10-29T03:00:18.267Z,11.26
2023-10-29T03:03:21.409Z,11.16
2023-10-29T03:06:24.361Z,11.27
2023-10-29T03:09:28.693Z,11.23
2023-10-29T03:12:31.632Z,11.15
2023-10-29T03:15:34.382Z,11.32
2023-10-29T03:18:37.552Z,11.18
2023-10-29T03:21:40.485Z,11.26
2023-10-29T03:24:44.587Z,11.30
2023-10-29T03:27:47.480Z,11.34
2023-10-29T03:30:50.233Z,11.32
2023-10-29T03:33:53.107Z,11.32
2023-10-29T03:36:55.833Z,11.20
2023-10-29T03:40:01.155Z,11.36
2023-10-29T03:43:03.869Z,11.33
2023-10-29T03:46:12.169Z,11.45
2023-10-29T03:49:17.198Z,11.34
2023-10-29T03:52:20.866Z,11.29
2023-10-29T03:55:25.449Z,11.26
2023-10-29T03:58:28.194Z,11.29
2023-10-29T04:01:31.260Z,11.28
2023-10-29T04:04:34.861Z,11.27
2023-10-29T04:07:37.807Z,11.36
2023-10-29T04:10:42.042Z,11.44
2023-10-29T04:13:45.675Z,11.34
2023-10-29T04:16:48.404Z,11.43
2023-10-29T04:19:51.304Z,11.41
2023-10-29T04:22:54.034Z,11.45
2023-10-29T04:25:58.247Z,11.55
2023-10-29T04:29:01.158Z,11.65
2023-10-29T04:32:04.257Z,11.57
2023-10-29T04:35:07.785Z,11.61
2023-10-29T04:38:10.651Z,11.79
2023-10-29T04:41:14.781Z,11.72
2023-10-29T04:44:17.552Z,11.76
2023-10-29T04:47:20.323Z,11.68
2023-10-29T04:50:23.152Z,11.66
2023-10-29T04:53:25.852Z,11.57
2023-10-29T04:56:30.099Z,11.60
2023-10-29T04:59:33.185Z,11.68
2023-10-29T05:02:36.942Z,11.68
2023-10-29T05:05:39.807Z,11.85
2023-10-29T05:08:42.536Z,11.73
2023-10-29T05:11:46.731Z,11.64
2023-10-29T05:14:52.156Z,11.61
2023-10-29T05:17:55.018Z,11.63
2023-10-29T05:20:59.129Z,11.73
2023-10-29T05:24:03.967Z,11.83
2023-10-29T05:27:08.198Z,11.78
2023-10-29T05:30:11.963Z,11.78
2023-10-29T05:33:14.789Z,11.86
2023-10-29T05:36:17.532Z,11.85
2023-10-29T05:39:20.268Z,11.83
2023-10-29T05:42:24.356Z,11.90
2023-10-29T05:45:27.089Z,11.81
2023-10-29T05:48:29.985Z,11.93
2023-10-29T05:51:32.967Z,11.99
2023-10-29T05:54:35.697Z,12.19
2023-10-29T05:57:40.193Z,12.00
2023-10-29T06:00:43.017Z,12.04
2023-10-29T06:03:46.010Z,12.11
2023-10-29T06:06:48.865Z,12.12
2023-10-29T06:09:52.169Z,12.20
2023-10-29T06:12:56.464Z,12.40
2023-10-29T06:15:59.305Z,12.07
2023-10-29T06:19:03.739Z,12.06
2023-10-29T06:22:07.057Z,12.26
2023-10-29T06:25:11.146Z,12.25
2023-10-29T06:28:15.219Z,12.10
2023-10-29T06:31:17.946Z,12.12
2023-10-29T06:34:20.689Z,12.35
2023-10-29T06:37:23.696Z,12.22
2023-10-29T06:40:26.828Z,12.24
2023-10-29T06:43:30.984Z,12.39
2023-10-29T06:46:33.712Z,12.33
2023-10-29T06:49:36.450Z,12.47
2023-10-29T06:52:39.376Z,12.30
2023-10-29T06:55:43.326Z,12.34
2023-10-29T06:58:47.529Z,12.37
2023-10-29T07:01:51.434Z,12.47
2023-10-29T07:04:54.263Z,12.49
2023-10-29T07:07:56.998Z,12.43
2023-10-29T07:10:59.774Z,12.54
2023-10-29T07:14:03.894Z,12.48
2023-10-29T07:17:07.265Z,12.45
2023-10-29T07:20:11.558Z,12.55
2023-10-29T07:23:14.748Z,12.41
2023-10-29T07:26:17.445Z,12.58
2023-10-29T07:29:21.660Z,12.53
2023-10-29T07:32:24.628Z,12.46
2023-10-29T07:35:27.520Z,12.54
2023-10-29T07:38:30.281Z,12.47
2023-10-29T07:41:33.163Z,12.54
2023-10-29T07:44:37.556Z,12.60
2023-10-29T07:47:40.770Z,12.64
2023-10-29T07:50:51.208Z,12.69
2023-10-29T07:53:54.914Z,12.50
2023-10-29T07:56:57.686Z,12.52
2023-10-29T08:00:01.990Z,12.44
2023-10-29T08:03:04.908Z,12.65
2023-10-29T08:06:07.975Z,12.67
2023-10-29T08:09:10.865Z,12.59
2023-10-29T08:12:13.618Z,12.69
2023-10-29T08:15:17.931Z,12.69
2023-10-29T08:18:20.850Z,12.59
2023-10-29T08:21:23.676Z,12.63
2023-10-29T08:24:34.847Z,12.64
2023-10-29T08:27:37.561Z,12.62
2023-10-29T08:30:41.779Z,12.58
2023-10-29T08:33:45.299Z,12.55
2023-10-29T08:36:48.201Z,12.67
2023-10-29T08:39:51.338Z,12.65
2023-10-29T08:42:54.085Z,12.65
2023-10-29T08:45:58.655Z,12.77
2023-10-29T08:49:01.521Z,12.96
2023-10-29T08:52:04.365Z,13.14
2023-10-29T08:55:08.014Z,13.05
2023-10-29T08:58:12.737Z,12.86
2023-10-29T09:01:18.714Z,13.20
2023-10-29T09:04:21.687Z,13.19
2023-10-29T09:07:25.031Z,13.16
2023-10-29T09:10:27.990Z,13.08
2023-10-29T09:13:31.256Z,13.15
2023-10-29T09:16:35.598Z,13.10
2023-10-29T09:19:38.694Z,13.18
2023-10-29T09:22:41.432Z,13.20
2023-10-29T09:25:45.781Z,13.17
2023-10-29T09:28:49.099Z,13.35
2023-10-29T09:31:53.418Z,13.47
2023-10-29T09:34:56.468Z,13.55
2023-10-29T09:37:59.856Z,13.47
2023-10-29T09:41:03.095Z,13.73
2023-10-29T09:44:09.447Z,13.64
2023-10-29T09:47:18.399Z,13.47
2023-10-29T09:50:22.806Z,13.74
2023-10-29T09:53:26.240Z,13.80
2023-10-29T09:56:31.029Z,13.66
2023-10-29T09:59:36.107Z,13.89
2023-10-29T10:02:53.600Z,13.73
2023-10-29T10:05:56.961Z,13.65
2023-10-29T10:09:00.117Z,13.68
2023-10-29T10:12:07.309Z,13.74
2023-10-29T10:15:12.290Z,13.78
2023-10-29T10:18:16.695Z,13.76
2023-10-29T10:21:21.528Z,13.79
2023-10-29T10:24:38.416Z,14.06
2023-10-29T10:27:50.393Z,13.99
2023-10-29T10:30:53.459Z,13.88
2023-10-29T10:34:14.990Z,13.93
2023-10-29T10:37:18.054Z,14.20
2023-10-29T10:40:24.015Z,14.18
2023-10-29T10:43:27.783Z,14.19
2023-10-29T10:46:35.138Z,14.01
2023-10-29T10:49:44.280Z,14.10
2023-10-29T10:52:47.542Z,14.11
2023-10-29T10:56:01.511Z,14.25
2023-10-29T10:59:07.055Z,14.11
2023-10-29T11:02:14.160Z,14.20
2023-10-29T11:05:19.061Z,14.22
2023-10-29T11:08:25.114Z,14.30
2023-10-29T11:11:38.747Z,14.58
2023-10-29T11:15:01.775Z,14.70
2023-10-29T11:18:04.914Z,14.88
2023-10-29T11:21:09.505Z,14.74
2023-10-29T11:24:19.434Z,14.70
2023-10-29T11:27:36.728Z,14.51
2023-10-29T11:30:39.464Z,14.58
2023-10-29T11:33:43.784Z,14.69
2023-10-29T11:36:47.962Z,14.69
2023-10-29T11:39:50.865Z,14.82
2023-10-29T11:42:54.780Z,14.82
2023-10-29T11:45:59.847Z,14.91
2023-10-29T11:49:06.585Z,15.09
2023-10-29T11:52:11.163Z,15.08
2023-10-29T11:55:14.777Z,15.14
2023-10-29T11:58:21.271Z,15.14
2023-10-29T12:01:24.117Z,15.25
2023-10-29T12:04:30.776Z,15.16
2023-10-29T12:07:35.247Z,15.23
2023-10-29T12:10:46.906Z,15.29
2023-10-29T12:13:49.842Z,15.40
2023-10-29T12:16:52.841Z,15.60
2023-10-29T12:19:55.710Z,15.65
2023-10-29T12:23:04.211Z,15.83
2023-10-29T12:26:10.651Z,15.82
2023-10-29T12:29:14.418Z,15.82
2023-10-29T12:32:18.373Z,15.85
2023-10-29T12:35:36.715Z,15.97
2023-10-29T12:38:42.558Z,15.90
2023-10-29T12:41:53.310Z,16.00
2023-10-29T12:44:56.897Z,16.12
2023-10-29T12:48:10.911Z,16.14
2023-10-29T12:51:13.827Z,16.16
2023-10-29T12:54:21.720Z,16.07
2023-10-29T12:57:25.075Z,16.07
2023-10-29T13:00:27.996Z,15.98
2023-10-29T13:03:31.283Z,16.13
2023-10-29T13:06:34.346Z,15.90
2023-10-29T13:09:38.495Z,15.85
2023-10-29T13:12:42.925Z,15.80
2023-10-29T13:15:46.214Z,15.78
2023-10-29T13:18:49.152Z,15.73
2023-10-29T13:21:53.549Z,15.74
2023-10-29T13:24:59.988Z,15.63
2023-10-29T13:28:02.832Z,15.72
2023-10-29T13:31:05.624Z,15.68
2023-10-29T13:34:09.873Z,15.61
2023-10-29T13:37:13.229Z,15.59
2023-10-29T13:40:17.528Z,15.62
2023-10-29T13:43:20.420Z,15.60
2023-10-29T13:46:24.045Z,15.59
2023-10-29T13:49:27.061Z,15.54
2023-10-29T13:52:32.357Z,15.53
2023-10-29T13:55:36.578Z,15.54
2023-10-29T13:58:39.721Z,15.56
2023-10-29T14:01:43.351Z,15.52
2023-10-29T14:04:46.142Z,15.61
2023-10-29T14:07:49.090Z,15.63
2023-10-29T14:10:53.185Z,15.54
2023-10-29T14:13:57.276Z,15.59
2023-10-29T14:17:02.958Z,15.59
2023-10-29T14:20:07.910Z,15.74
2023-10-29T14:23:10.828Z,15.50
2023-10-29T14:26:14.909Z,15.41
2023-10-29T14:29:17.764Z,15.57
2023-10-29T14:32:22.463Z,15.44
2023-10-29T14:35:25.349Z,15.57
2023-10-29T14:38:28.503Z,15.34
2023-10-29T14:41:32.719Z,15.47
2023-10-29T14:44:35.427Z,15.37
2023-10-29T14:47:38.196Z,15.33
2023-10-29T14:50:40.922Z,15.42
2023-10-29T14:53:43.761Z,15.32
2023-10-29T14:56:47.989Z,15.23
2023-10-29T14:59:50.856Z,15.20
2023-10-29T15:02:53.715Z,15.17
2023-10-29T15:05:57.228Z,15.21
2023-10-29T15:09:00.519Z,15.39
2023-10-29T15:12:05.286Z,15.38
2023-10-29T15:15:22.353Z,15.26
2023-10-29T15:18:33.220Z,15.31
2023-10-29T15:21:36.118Z,15.44
2023-10-29T15:24:38.932Z,15.27
2023-10-29T15:27:43.764Z,15.16
2023-10-29T15:30:46.662Z,15.17
2023-10-29T15:33:49.418Z,15.26
2023-10-29T15:36:52.341Z,15.18
2023-10-29T15:39:57.699Z,15.31
2023-10-29T15:43:01.800Z,15.17
2023-10-29T15:46:05.831Z,15.09
2023-10-29T15:49:08.610Z,15.28
2023-10-29T15:52:11.520Z,15.05
2023-10-29T15:55:15.148Z,15.22
2023-10-29T15:58:20.312Z,14.97
2023-10-29T16:01:23.267Z,14.95
2023-10-29T16:04:26.198Z,15.16
2023-10-29T16:07:28.970Z,15.20
2023-10-29T16:10:31.743Z,14.96
2023-10-29T16:13:36.469Z,14.99
2023-10-29T16:16:39.191Z,15.05
2023-10-29T16:19:42.010Z,14.84
2023-10-29T16:22:44.751Z,14.76
2023-10-29T16:25:47.612Z,14.77
2023-10-29T16:28:51.778Z,14.60
2023-10-29T16:31:54.571Z,14.61
2023-10-29T16:34:57.462Z,14.70
2023-10-29T16:38:00.218Z,14.60
2023-10-29T16:41:05.541Z,14.47
2023-10-29T16:44:09.686Z,14.51
2023-10-29T16:47:12.548Z,14.37
2023-10-29T16:50:15.659Z,14.45
2023-10-29T16:53:18.453Z,14.60
2023-10-29T16:56:21.408Z,14.42
2023-10-29T16:59:25.640Z,14.42
2023-10-29T17:02:28.605Z,14.48
2023-10-29T17:05:31.524Z,14.30
2023-10-29T17:08:34.511Z,14.43
2023-10-29T17:11:38.008Z,14.42
2023-10-29T17:14:42.147Z,14.37
2023-10-29T17:17:44.967Z,14.41
2023-10-29T17:20:50.622Z,14.34
2023-10-29T17:23:53.497Z,14.36
2023-10-29T17:26:56.443Z,14.43
2023-10-29T17:30:02.118Z,14.28
2023-10-29T17:33:05.348Z,14.22
2023-10-29T17:36:10.728Z,14.32
2023-10-29T17:42:18.989Z,14.30
2023-10-29T17:45:23.267Z,14.27
2023-10-29T17:51:29.167Z,14.39
2023-10-29T17:54:33.124Z,14.39
2023-10-29T17:57:36.587Z,14.38
2023-10-29T18:00:41.223Z,14.39
2023-10-29T18:03:45.613Z,14.40
2023-10-29T18:06:51.232Z,14.45
2023-10-29T18:09:54.104Z,14.46
2023-10-29T18:12:57.029Z,14.37
2023-10-29T18:16:01.617Z,14.52
2023-10-29T18:19:05.700Z,14.52
2023-10-29T18:22:08.518Z,14.49
2023-10-29T18:25:11.498Z,14.68
2023-10-29T18:28:14.239Z,14.57
2023-10-29T18:31:18.361Z,14.62
2023-10-29T18:34:21.224Z,14.64
2023-10-29T18:37:24.009Z,14.64
2023-10-29T18:40:27.962Z,15.01
2023-10-29T18:43:30.693Z,14.86
2023-10-29T18:46:34.806Z,14.85
2023-10-29T18:49:37.588Z,14.95
2023-10-29T18:52:40.362Z,15.15
2023-10-29T18:55:44.082Z,15.11
2023-10-29T18:58:46.850Z,14.94
2023-10-29T19:01:51.711Z,14.88
2023-10-29T19:04:54.555Z,14.96
2023-10-29T19:07:57.314Z,15.10
2023-10-29T19:11:02.020Z,14.87
2023-10-29T19:14:05.331Z,15.03
2023-10-29T19:17:10.136Z,14.84
2023-10-29T19:20:13.932Z,14.99
2023-10-29T19:23:16.674Z,14.78
2023-10-29T19:26:20.029Z,14.77
2023-10-29T19:29:24.561Z,14.85
2023-10-29T19:32:28.697Z,14.90
2023-10-29T19:35:33.142Z,14.80
2023-10-29T19:38:43.190Z,15.01
2023-10-29T19:41:46.658Z,15.17
2023-10-29T19:44:51.849Z,15.02
2023-10-29T19:47:56.353Z,14.89
2023-10-29T19:51:00.403Z,14.83
2023-10-29T19:54:03.337Z,15.16
2023-10-29T19:57:06.689Z,15.19
2023-10-29T20:00:10.455Z,15.22
2023-10-29T20:03:14.834Z,15.11
2023-10-29T20:06:18.314Z,15.03
2023-10-29T20:09:21.158Z,15.05
2023-10-29T20:12:24.019Z,14.93
2023-10-29T20:15:26.860Z,14.84
2023-10-29T20:18:31.633Z,14.92
2023-10-29T20:21:34.468Z,15.10
2023-10-29T20:24:37.473Z,15.04
2023-10-29T20:27:42.438Z,14.99
2023-10-29T20:30:47.073Z,14.91
2023-10-29T20:33:52.164Z,14.93
2023-10-29T20:36:55.137Z,14.89
2023-10-29T20:39:58.050Z,14.89
2023-10-29T20:43:00.798Z,14.95
2023-10-29T20:46:04.841Z,14.75
2023-10-29T20:49:09.202Z,14.81
2023-10-29T20:52:12.076Z,14.76
2023-10-29T20:55:15.017Z,14.60
2023-10-29T20:58:17.780Z,14.41
2023-10-29T21:01:20.733Z,14.35
2023-10-29T21:04:25.384Z,14.26
2023-10-29T21:07:28.941Z,14.18
2023-10-29T21:10:32.068Z,14.20
2023-10-29T21:13:34.923Z,14.20
2023-10-29T21:16:37.827Z,14.26
2023-10-29T21:19:41.960Z,14.36
2023-10-29T21:22:44.887Z,14.16
2023-10-29T21:25:47.909Z,14.24
2023-10-29T21:28:50.839Z,14.07
2023-10-29T21:31:53.788Z,14.04
2023-10-29T21:34:57.900Z,14.00
2023-10-29T21:38:01.662Z,13.96
2023-10-29T21:41:05.587Z,13.89
2023-10-29T21:44:08.541Z,14.08
2023-10-29T21:47:11.318Z,14.13
2023-10-29T21:50:16.763Z,14.11
2023-10-29T21:53:19.647Z,14.02
2023-10-29T21:56:22.367Z,13.82
2023-10-29T21:59:25.252Z,13.82
2023-10-29T22:02:28.341Z,13.85
2023-10-29T22:05:33.897Z,13.68
2023-10-29T22:08:37.156Z,13.86
2023-10-29T22:11:39.880Z,13.98
2023-10-29T22:14:42.863Z,13.74
2023-10-29T22:17:45.762Z,13.83
2023-10-29T22:20:49.968Z,13.87
2023-10-29T22:23:55.646Z,13.99
2023-10-29T22:26:58.431Z,13.69
2023-10-29T22:30:01.317Z,13.64
2023-10-29T22:33:04.271Z,13.65
2023-10-29T22:36:09.143Z,13.73
2023-10-29T22:39:12.933Z,13.62
2023-10-29T22:42:15.719Z,13.69
2023-10-29T22:45:18.667Z,13.65
2023-10-29T22:48:21.783Z,13.62
2023-10-29T22:51:26.044Z,13.60
2023-10-29T22:54:28.997Z,13.65
2023-10-29T22:57:31.856Z,13.56
2023-10-29T23:00:35.178Z,13.46
2023-10-29T23:03:38.528Z,13.58
2023-10-29T23:06:42.738Z,13.65
2023-10-29T23:09:45.659Z,13.51
2023-10-29T23:12:51.873Z,13.33
2023-10-29T23:15:56.670Z,13.38
2023-10-29T23:18:59.766Z,13.46
2023-10-29T23:22:04.711Z,13.47
2023-10-29T23:25:10.372Z,13.37
2023-10-29T23:28:23.023Z,13.25
2023-10-29T23:31:36.361Z,13.34
2023-10-29T23:34:39.321Z,13.26
2023-10-29T23:37:43.459Z,13.37
2023-10-29T23:40:46.366Z,13.24
2023-10-29T23:43:49.066Z,13.33
2023-10-29T23:46:51.946Z,13.46
2023-10-29T23:49:55.168Z,13.48
2023-10-29T23:52:59.216Z,13.35
2023-10-29T23:56:02.088Z,13.37
2023-10-29T23:59:05.234Z,13.37
